Home > Products > Valid Products > MTR

000
SAUS41 KOKX 061755
MTRMTP
METAR KMTP 061754Z AUTO VRB04KT 26/20 A3020 RMK AO1 SLP226 T02560200
10256 20211 51004





000
SAUS41 KOKX 061752
MTRNYC
METAR KNYC 061751Z AUTO VRB04KT 10SM CLR 28/18 A3018 RMK AO2 SLP208
T02830178 10283 20239 57006 $





000
SAUS41 KOKX 061655
MTRMTP
METAR KMTP 061654Z AUTO VRB06KT 24/19 A3020 RMK AO1 SLP226 T02440194





000
SAUS41 KOKX 061652
MTRNYC
METAR KNYC 061651Z AUTO VRB04KT 9SM BKN075 28/17 A3019 RMK AO2
SLP212 T02780172 $





000
SAUS41 KOKX 061555
MTRMTP
METAR KMTP 061554Z AUTO VRB04KT 25/21 A3021 RMK AO1 SLP229 T02500206





000
SAUS41 KOKX 061552
MTRNYC
METAR KNYC 061551Z AUTO VRB04KT 9SM BKN080 27/18 A3019 RMK AO2
SLP211 T02720178 $





000
SAUS41 KOKX 061552
MTRNYC
METAR KNYC 061551Z AUTO VRB04KT 9SM BKN080 27/18 A3019 RMK AO2
SLP211 T02720178 $





000
SAUS41 KOKX 061455
MTRMTP
METAR KMTP 061454Z AUTO VRB03KT 25/21 A3019 RMK AO1 SLP222 T02500211
53002





000
SAUS41 KOKX 061452
MTRNYC
METAR KNYC 061451Z AUTO VRB04KT 8SM SCT033 27/19 A3019 RMK AO2
SLP215 T02670189 53002 $





000
SAUS41 KOKX 061452
MTRNYC
METAR KNYC 061451Z AUTO VRB04KT 8SM SCT033 27/19 A3019 RMK AO2
SLP215 T02670189 53002 $





000
SAUS41 KOKX 061355
MTRMTP
METAR KMTP 061354Z AUTO 00000KT 23/21 A3018 RMK AO1 SLP220 T02330206





000
SAUS41 KOKX 061355
MTRMTP
METAR KMTP 061354Z AUTO 00000KT 23/21 A3018 RMK AO1 SLP220 T02330206





000
SAUS41 KOKX 061352
MTRNYC
METAR KNYC 061351Z AUTO 00000KT 6SM HZ FEW023 SCT027 BKN033 26/20
A3019 RMK AO2 SLP211 T02610200 $





000
SAUS41 KOKX 061352
MTRNYC
METAR KNYC 061351Z AUTO 00000KT 6SM HZ FEW023 SCT027 BKN033 26/20
A3019 RMK AO2 SLP211 T02610200 $





000
SAUS41 KOKX 061255
MTRMTP
METAR KMTP 061254Z AUTO 13003KT 22/19 A3018 RMK AO1 SLP219 T02220194





000
SAUS41 KOKX 061255
MTRMTP
METAR KMTP 061254Z AUTO 13003KT 22/19 A3018 RMK AO1 SLP219 T02220194





000
SAUS41 KOKX 061252
MTRNYC
METAR KNYC 061251Z AUTO 00000KT 5SM HZ CLR 25/19 A3018 RMK AO2
SLP210 T02500194 $





000
SAUS41 KOKX 061252
MTRNYC
METAR KNYC 061251Z AUTO 00000KT 5SM HZ CLR 25/19 A3018 RMK AO2
SLP210 T02500194 $





000
SAUS41 KOKX 061155
MTRMTP
METAR KMTP 061154Z AUTO 00000KT 21/19 A3018 RMK AO1 SLP220 T02110194
10211 20183 50006





000
SAUS41 KOKX 061155
MTRMTP
METAR KMTP 061154Z AUTO 00000KT 21/19 A3018 RMK AO1 SLP220 T02110194
10211 20183 50006





000
SAUS41 KOKX 061152
MTRNYC
METAR KNYC 061151Z AUTO 00000KT 6SM HZ CLR 24/19 A3019 RMK AO2
SLP213 T02390194 10239 20222 53006 $





000
SAUS41 KOKX 061152
MTRNYC
METAR KNYC 061151Z AUTO 00000KT 6SM HZ CLR 24/19 A3019 RMK AO2
SLP213 T02390194 10239 20222 53006 $





000
SAUS41 KOKX 061055
MTRMTP
METAR KMTP 061054Z AUTO 16003KT 20/19 A3018 RMK AO1 SLP221 T02000189





000
SAUS41 KOKX 061052
MTRNYC
METAR KNYC 061051Z AUTO 00000KT 6SM HZ CLR 23/19 A3018 RMK AO2
SLP210 T02330194 $





000
SAUS41 KOKX 061052
MTRNYC
METAR KNYC 061051Z AUTO 00000KT 6SM HZ CLR 23/19 A3018 RMK AO2
SLP210 T02330194 $





000
SAUS41 KOKX 060955
MTRMTP
METAR KMTP 060954Z AUTO 00000KT 19/18 A3018 RMK AO1 SLP220 T01940183





000
SAUS41 KOKX 060952
MTRNYC
METAR KNYC 060951Z AUTO 00000KT 6SM HZ CLR 22/19 A3018 RMK AO2
SLP209 T02220189 $





000
SAUS41 KOKX 060855
MTRMTP
METAR KMTP 060854Z AUTO 00000KT 19/18 A3016 RMK AO1 SLP214 T01890178
55001





000
SAUS41 KOKX 060853
MTRNYC
METAR KNYC 060851Z AUTO 26003KT 8SM CLR 22/18 A3017 RMK AO2 SLP207
T02220183 53001 $





000
SAUS41 KOKX 060755
MTRMTP
METAR KMTP 060754Z AUTO 00000KT 19/17 A3016 RMK AO1 SLP211 T01940172





000
SAUS41 KOKX 060752
MTRNYC
METAR KNYC 060751Z AUTO 28003KT 8SM CLR 23/18 A3016 RMK AO2 SLP204
T02280183 $





000
SAUS41 KOKX 060655
MTRMTP
METAR KMTP 060654Z AUTO 00000KT 19/17 A3017 RMK AO1 SLP215 T01890167





000
SAUS41 KOKX 060652
MTRNYC
METAR KNYC 060651Z AUTO 00000KT 9SM CLR 23/18 A3017 RMK AO2 SLP206
T02330183 $





000
SAUS41 KOKX 060555
MTRMTP
METAR KMTP 060554Z AUTO 00000KT 19/17 A3017 RMK AO1 SLP215 T01940172
10222 20194 50001





000
SAUS41 KOKX 060555
MTRMTP
METAR KMTP 060554Z AUTO 00000KT 19/17 A3017 RMK AO1 SLP215 T01940172
10222 20194 50001





000
SAUS41 KOKX 060553
MTRNYC
METAR KNYC 060551Z AUTO 25003KT 9SM CLR 23/18 A3017 RMK AO2 SLP205
T02330183 10256 20233 50000 $





000
SAUS41 KOKX 060455
MTRMTP
METAR KMTP 060454Z AUTO 00000KT 19/17 A3017 RMK AO1 SLP216 T01940167
402610161





000
SAUS41 KOKX 060453
MTRNYC
METAR KNYC 060451Z AUTO 00000KT 9SM CLR 23/18 A3017 RMK AO2 SLP207
T02330178 402830200 $





000
SAUS41 KOKX 060355
MTRMTP
METAR KMTP 060354Z AUTO 26004KT 21/17 A3017 RMK AO1 SLP215 T02110172





000
SAUS41 KOKX 060352
MTRNYC
METAR KNYC 060351Z AUTO 00000KT 10SM CLR 23/18 A3017 RMK AO2 SLP207
T02330178 $





000
SAUS41 KOKX 060255
MTRMTP
METAR KMTP 060254Z AUTO 23005KT 21/18 A3017 RMK AO1 SLP215 T02110178
53015





000
SAUS41 KOKX 060255
MTRMTP
METAR KMTP 060254Z AUTO 23005KT 21/18 A3017 RMK AO1 SLP215 T02110178
53015





000
SAUS41 KOKX 060253
MTRNYC
METAR KNYC 060251Z AUTO 00000KT 10SM CLR 24/18 A3017 RMK AO2 SLP205
T02390178 51012 $





000
SAUS41 KOKX 060155
MTRMTP
METAR KMTP 060154Z AUTO 23006KT 21/17 A3016 RMK AO1 SLP211 T02110172





000
SAUS41 KOKX 060155
MTRMTP
METAR KMTP 060154Z AUTO 23006KT 21/17 A3016 RMK AO1 SLP211 T02110172





000
SAUS41 KOKX 060152
MTRNYC
METAR KNYC 060151Z AUTO VRB03KT 10SM CLR 24/17 A3016 RMK AO2 SLP203
T02390167 $





000
SAUS41 KOKX 060055
MTRMTP
METAR KMTP 060054Z AUTO 23006KT 22/17 A3013 RMK AO1 SLP203 T02170172





000
SAUS41 KOKX 060052
MTRNYC
METAR KNYC 060051Z AUTO 00000KT 10SM CLR 24/16 A3014 RMK AO2 SLP196
T02440161 $





000
SAUS41 KOKX 060052
MTRNYC
METAR KNYC 060051Z AUTO 00000KT 10SM CLR 24/16 A3014 RMK AO2 SLP196
T02440161 $





000
SAUS41 KOKX 052355
MTRMTP
METAR KMTP 052354Z AUTO VRB05KT 22/17 A3012 RMK AO1 SLP200 T02220167
10261 20222 53001





000
SAUS41 KOKX 052352
MTRNYC
METAR KNYC 052351Z AUTO VRB03KT 10SM CLR 26/16 A3013 RMK AO2 SLP193
T02560161 10283 20256 53003 $





000
SAUS41 KOKX 052352
MTRNYC
METAR KNYC 052351Z AUTO VRB03KT 10SM CLR 26/16 A3013 RMK AO2 SLP193
T02560161 10283 20256 53003 $





000
SAUS41 KOKX 052255
MTRMTP
METAR KMTP 052254Z AUTO 23005KT 23/17 A3012 RMK AO1 SLP200 T02330172





000
SAUS41 KOKX 052253
MTRNYC
METAR KNYC 052251Z AUTO 18003KT 10SM CLR 27/16 A3013 RMK AO2 SLP192
T02670161 $





000
SAUS41 KOKX 052253
MTRNYC
METAR KNYC 052251Z AUTO 18003KT 10SM CLR 27/16 A3013 RMK AO2 SLP192
T02670161 $





000
SAUS41 KOKX 052155
MTRMTP
METAR KMTP 052154Z AUTO 22004KT 24/17 A3012 RMK AO1 SLP198 T02390172





000
SAUS41 KOKX 052155
MTRMTP
METAR KMTP 052154Z AUTO 22004KT 24/17 A3012 RMK AO1 SLP198 T02390172





000
SAUS41 KOKX 052152
MTRNYC
METAR KNYC 052151Z AUTO VRB03KT 9SM CLR 27/17 A3012 RMK AO2 SLP190
T02720167 $





000
SAUS41 KOKX 052055
MTRMTP
METAR KMTP 052054Z AUTO 22006KT 24/17 A3012 RMK AO1 SLP199 T02440172
55002





000
SAUS41 KOKX 052052
MTRNYC
METAR KNYC 052051Z AUTO 00000KT 9SM CLR 27/17 A3012 RMK AO2 SLP190
T02720167 56007 $





000
SAUS41 KOKX 051955
MTRMTP
METAR KMTP 051954Z AUTO 21007KT 25/18 A3011 RMK AO1 SLP197 T02500178





000
SAUS41 KOKX 051952
MTRNYC
METAR KNYC 051951Z AUTO 00000KT 9SM CLR 28/15 A3013 RMK AO2 SLP191
T02830150 $





000
SAUS41 KOKX 051855
MTRMTP
METAR KMTP 051854Z AUTO 21007KT 25/17 A3013 RMK AO1 SLP202 T02500172





000
SAUS41 KOKX 051853
MTRNYC
METAR KNYC 051851Z AUTO 00000KT 10SM CLR 28/17 A3013 RMK AO2 SLP194
T02830167 $





000
SAUS41 KOKX 051755
MTRMTP
METAR KMTP 051754Z AUTO 19006KT 26/17 A3012 RMK AO1 SLP200 T02610172
10261 20206 58001





000
SAUS41 KOKX 051755
MTRMTP
METAR KMTP 051754Z AUTO 19006KT 26/17 A3012 RMK AO1 SLP200 T02610172
10261 20206 58001





000
SAUS41 KOKX 051753
MTRNYC
METAR KNYC 051751Z AUTO VRB05KT 9SM CLR 27/17 A3014 RMK AO2 SLP198
T02720172 10278 20211 56004 $





000
SAUS41 KOKX 051753
MTRNYC
METAR KNYC 051751Z AUTO VRB05KT 9SM CLR 27/17 A3014 RMK AO2 SLP198
T02720172 10278 20211 56004 $





000
SAUS41 KOKX 051655
MTRMTP
METAR KMTP 051654Z AUTO 22007KT 26/17 A3013 RMK AO1 SLP202 T02560172





000
SAUS41 KOKX 051652
MTRNYC
METAR KNYC 051651Z AUTO 10SM FEW038 27/17 A3015 RMK AO2 SLP199
T02670172 $





000
SAUS41 KOKX 051652
MTRNYC
METAR KNYC 051651Z AUTO 10SM FEW038 27/17 A3015 RMK AO2 SLP199
T02670172 $





000
SAUS41 KOKX 051555
MTRMTP
METAR KMTP 051554Z AUTO 25006KT 24/17 A3012 RMK AO1 SLP200 T02440172





000
SAUS41 KOKX 051555
MTRMTP
METAR KMTP 051554Z AUTO 25006KT 24/17 A3012 RMK AO1 SLP200 T02440172





000
SAUS41 KOKX 051552
MTRNYC
METAR KNYC 051551Z AUTO 00000KT 10SM CLR 26/17 A3015 RMK AO2 SLP199
T02610167 $





000
SAUS41 KOKX 051552
MTRNYC
METAR KNYC 051551Z AUTO 00000KT 10SM CLR 26/17 A3015 RMK AO2 SLP199
T02610167 $





000
SAUS41 KOKX 051455
MTRMTP
METAR KMTP 051454Z AUTO 26006KT 23/17 A3013 RMK AO1 SLP202 T02330172
51008





000
SAUS41 KOKX 051453
MTRNYC
METAR KNYC 051451Z AUTO 00000KT 10SM CLR 24/16 A3016 RMK AO2 SLP202
T02440161 50009 $





000
SAUS41 KOKX 051355
MTRMTP
METAR KMTP 051354Z AUTO 26006KT 23/17 A3013 RMK AO1 SLP201 T02280172





000
SAUS41 KOKX 051355
MTRMTP
METAR KMTP 051354Z AUTO 26006KT 23/17 A3013 RMK AO1 SLP201 T02280172





000
SAUS41 KOKX 051352
MTRNYC
METAR KNYC 051351Z AUTO 27003KT 9SM CLR 23/15 A3016 RMK AO2 SLP203
T02280150 $





000
SAUS41 KOKX 051255
MTRMTP
METAR KMTP 051254Z AUTO 28006KT 22/17 A3012 RMK AO1 SLP200 T02170172





000
SAUS41 KOKX 051252
MTRNYC
METAR KNYC 051251Z AUTO 27004KT 9SM CLR 22/16 A3015 RMK AO2 SLP200
T02220156 $





000
SAUS41 KOKX 051155
MTRMTP
METAR KMTP 051154Z AUTO 27004KT 21/17 A3010 RMK AO1 SLP193 T02060172
10206 20161 53019





000
SAUS41 KOKX 051152
MTRNYC
METAR KNYC 051151Z AUTO 30004KT 8SM CLR 21/15 A3013 RMK AO2 SLP193
T02110150 10211 20200 53015 $





000
SAUS41 KOKX 051055
MTRMTP
METAR KMTP 051054Z AUTO 30003KT 19/17 A3009 RMK AO1 SLP188 T01940172





000
SAUS41 KOKX 051052
MTRNYC
METAR KNYC 051051Z AUTO 8SM CLR 21/15 A3011 RMK AO2 SLP187 T02110150
$





000
SAUS41 KOKX 050955
MTRMTP
METAR KMTP 050954Z AUTO 00000KT 18/16 A3006 RMK AO1 SLP179 T01830156





000
SAUS41 KOKX 050952
MTRNYC
METAR KNYC 050951Z AUTO 00000KT 8SM OVC043 21/15 A3010 RMK AO2
SLP182 T02110150 $





000
SAUS41 KOKX 050952
MTRNYC
METAR KNYC 050951Z AUTO 00000KT 8SM OVC043 21/15 A3010 RMK AO2
SLP182 T02110150 $





000
SAUS41 KOKX 050855
MTRMTP
METAR KMTP 050854Z AUTO 00000KT 16/14 A3005 RMK AO1 SLP175 T01610144
53001





000
SAUS41 KOKX 050852
MTRNYC
METAR KNYC 050851Z AUTO 00000KT 9SM OVC043 21/14 A3008 RMK AO2
SLP178 T02110144 53005 $





000
SAUS41 KOKX 050755
MTRMTP
METAR KMTP 050754Z AUTO 28003KT 19/16 A3004 RMK AO1 SLP172 T01890156





000
SAUS41 KOKX 050753
MTRNYC
METAR KNYC 050751Z AUTO 00000KT 10SM OVC045 21/14 A3007 RMK AO2
SLP174 T02110144 $





000
SAUS41 KOKX 050753
MTRNYC
METAR KNYC 050751Z AUTO 00000KT 10SM OVC045 21/14 A3007 RMK AO2
SLP174 T02110144 $





000
SAUS41 KOKX 050655
MTRMTP
METAR KMTP 050654Z AUTO 28003KT 19/16 A3004 RMK AO1 SLP173 T01890161





000
SAUS41 KOKX 050655
MTRMTP
METAR KMTP 050654Z AUTO 28003KT 19/16 A3004 RMK AO1 SLP173 T01890161





000
SAUS41 KOKX 050652
MTRNYC
METAR KNYC 050651Z AUTO 00000KT 9SM OVC040 21/14 A3007 RMK AO2
SLP173 T02060144 $





000
SAUS41 KOKX 050652
MTRNYC
METAR KNYC 050651Z AUTO 00000KT 9SM OVC040 21/14 A3007 RMK AO2
SLP173 T02060144 $





000
SAUS41 KOKX 050555
MTRMTP
METAR KMTP 050554Z AUTO 00000KT 18/16 A3004 RMK AO1 SLP173 T01830161
10206 20150 53012





000
SAUS41 KOKX 050553
MTRNYC
METAR KNYC 050551Z AUTO 00000KT 8SM CLR 21/14 A3007 RMK AO2 SLP173
T02060144 10228 20206 52011 $





000
SAUS41 KOKX 050553
MTRNYC
METAR KNYC 050551Z AUTO 00000KT 8SM CLR 21/14 A3007 RMK AO2 SLP173
T02060144 10228 20206 52011 $





000
SAUS41 KOKX 050455
MTRMTP
METAR KMTP 050454Z AUTO 00000KT 16/13 A3003 RMK AO1 SLP169 T01560133
402280150





000
SAUS41 KOKX 050455
MTRMTP
METAR KMTP 050454Z AUTO 00000KT 16/13 A3003 RMK AO1 SLP169 T01560133
402280150





000
SAUS41 KOKX 050452
MTRNYC
METAR KNYC 050451Z AUTO 00000KT 7SM SCT070 21/14 A3006 RMK AO2
SLP171 T02060144 402390206 $





000
SAUS41 KOKX 050452
MTRNYC
METAR KNYC 050451Z AUTO 00000KT 7SM SCT070 21/14 A3006 RMK AO2
SLP171 T02060144 402390206 $





000
SAUS41 KOKX 050355
MTRMTP
METAR KMTP 050354Z AUTO 33003KT 16/13 A3002 RMK AO1 SLP165 T01560128





000
SAUS41 KOKX 050355
MTRMTP
METAR KMTP 050354Z AUTO 33003KT 16/13 A3002 RMK AO1 SLP165 T01560128





000
SAUS41 KOKX 050352
MTRNYC
METAR KNYC 050351Z AUTO 28004KT 10SM BKN075 22/12 A3005 RMK AO2
SLP165 T02170117 $





000
SAUS41 KOKX 050255
MTRMTP
METAR KMTP 050254Z AUTO 00000KT 16/13 A3001 RMK AO1 SLP162 T01560133
51013





000
SAUS41 KOKX 050253
MTRNYC
METAR KNYC 050251Z AUTO 00000KT 10SM BKN045 22/12 A3004 RMK AO2
SLP162 T02220117 53015 $





000
SAUS41 KOKX 050155
MTRMTP
METAR KMTP 050154Z AUTO 00000KT 16/13 A3001 RMK AO1 SLP160 T01610133





000
SAUS41 KOKX 050152
MTRNYC
METAR KNYC 050151Z AUTO 00000KT 10SM BKN044 22/12 A3003 RMK AO2
SLP158 T02170117 $





000
SAUS41 KOKX 050055
MTRMTP
METAR KMTP 050054Z AUTO 00000KT 18/14 A2999 RMK AO1 SLP154 T01780139





000
SAUS41 KOKX 050053
MTRNYC
METAR KNYC 050051Z AUTO 00000KT 10SM BKN090 22/11 A3000 RMK AO2
SLP151 T02220111 $





000
SAUS41 KOKX 050053
MTRNYC
METAR KNYC 050051Z AUTO 00000KT 10SM BKN090 22/11 A3000 RMK AO2
SLP151 T02220111 $





000
SAUS41 KOKX 042355
MTRMTP
METAR KMTP 042354Z AUTO 00000KT 21/14 A2997 RMK AO1 SLP148 T02060139
10228 20206 53009





000
SAUS41 KOKX 042353
MTRNYC
METAR KNYC 042351Z AUTO 07003KT 10SM OVC085 23/12 A2999 RMK AO2
SLP148 60000 T02280122 10239 20211 53009 $





000
SAUS41 KOKX 042353
MTRNYC
METAR KNYC 042351Z AUTO 07003KT 10SM OVC085 23/12 A2999 RMK AO2
SLP148 60000 T02280122 10239 20211 53009 $





000
SAUS41 KOKX 042255
MTRMTP
METAR KMTP 042254Z AUTO 35003KT 21/13 A2996 RMK AO1 SLP143 T02110128





000
SAUS41 KOKX 042252
MTRNYC
METAR KNYC 042251Z AUTO 10005KT 10SM FEW041 SCT085 23/11 A2997 RMK
AO2 SLP141 T02330111 $





000
SAUS41 KOKX 042155
MTRMTP
METAR KMTP 042154Z AUTO 01004KT 21/13 A2995 RMK AO1 SLP141 T02110133





000
SAUS41 KOKX 042152
MTRNYC
METAR KNYC 042151Z AUTO VRB03KT 10SM SCT038 BKN110 23/13 A2997 RMK
AO2 SLP138 T02330133 $





000
SAUS41 KOKX 042055
MTRMTP
METAR KMTP 042054Z AUTO 08007KT 22/13 A2994 RMK AO1 SLP139 T02220133
58010





000
SAUS41 KOKX 042055
MTRMTP
METAR KMTP 042054Z AUTO 08007KT 22/13 A2994 RMK AO1 SLP139 T02220133
58010





000
SAUS41 KOKX 042052
MTRNYC
METAR KNYC 042051Z AUTO VRB03KT 10SM CLR 23/14 A2997 RMK AO2 SLP138
60000 T02330144 56009 $





000
SAUS41 KOKX 041955
MTRMTP
METAR KMTP 041954Z AUTO 05005KT 22/14 A2997 RMK AO1 SLP148 T02170144





000
SAUS41 KOKX 041953
MTRNYC
METAR KNYC 041951Z AUTO 09005KT 10SM FEW034 23/14 A2997 RMK AO2
SLP140 T02330144 $





000
SAUS41 KOKX 041953
MTRNYC
METAR KNYC 041951Z AUTO 09005KT 10SM FEW034 23/14 A2997 RMK AO2
SLP140 T02330144 $





000
SAUS41 KOKX 041855
MTRMTP
METAR KMTP 041854Z AUTO 05009KT 22/16 A2997 RMK AO1 SLP148 T02220156





000
SAUS41 KOKX 041855
MTRMTP
METAR KMTP 041854Z AUTO 05009KT 22/16 A2997 RMK AO1 SLP148 T02220156





000
SAUS41 KOKX 041853
MTRNYC
METAR KNYC 041851Z AUTO 00000KT 8SM SCT031 BKN075 OVC110 22/16 A2998
RMK AO2 RAE1752B33E43 SLP142 P0000 T02220161 $





000
SAUS41 KOKX 041755
MTRMTP
METAR KMTP 041754Z AUTO 05008KT 21/17 A2997 RMK AO1 SLP149 T02110172
10228 20194 53002





000
SAUS41 KOKX 041755
MTRMTP
METAR KMTP 041754Z AUTO 05008KT 21/17 A2997 RMK AO1 SLP149 T02110172
10228 20194 53002





000
SAUS41 KOKX 041752
MTRNYC
METAR KNYC 041751Z AUTO 9SM -RA SCT070 OVC095 21/16 A2999 RMK AO2
RAB1654 SLP148 P0000 60000 T02110161 10228 20211 53002 $





000
SAUS41 KOKX 041656
MTRMTP
METAR KMTP 041654Z AUTO 04007KT 22/18 A2997 RMK AO1 SLP147 T02170178





000
SAUS41 KOKX 041653
MTRNYC
METAR KNYC 041651Z AUTO VRB06KT 10SM FEW025 BKN032 OVC085 22/16
A2999 RMK AO2 SLP145 T02220161 $





000
SAUS41 KOKX 041555
MTRMTP
METAR KMTP 041554Z AUTO 06007KT 22/17 A2997 RMK AO1 SLP147 T02170172





000
SAUS41 KOKX 041552
MTRNYC
METAR KNYC 041551Z AUTO 03007KT 350V050 10SM OVC080 23/12 A2999 RMK
AO2 SLP146 T02280122 $





000
SAUS41 KOKX 041552
MTRNYC
METAR KNYC 041551Z AUTO 03007KT 350V050 10SM OVC080 23/12 A2999 RMK
AO2 SLP146 T02280122 $





000
SAUS41 KOKX 041456
MTRMTP
METAR KMTP 041454Z AUTO VRB06KT 22/18 A2997 RMK AO1 SLP147 T02170178
58006





000
SAUS41 KOKX 041452
MTRNYC
METAR KNYC 041451Z AUTO VRB04KT 10SM OVC080 22/14 A2999 RMK AO2
SLP145 T02220144 53006 $





000
SAUS41 KOKX 041356
MTRMTP
METAR KMTP 041354Z AUTO 09004KT 21/18 A2998 RMK AO1 SLP153 T02110183





000
SAUS41 KOKX 041356
MTRMTP
METAR KMTP 041354Z AUTO 09004KT 21/18 A2998 RMK AO1 SLP153 T02110183





000
SAUS41 KOKX 041353
MTRNYC
METAR KNYC 041351Z AUTO VRB05KT 10SM BKN085 OVC110 23/16 A2998 RMK
AO2 SLP142 T02280156 $





000
SAUS41 KOKX 041255
MTRMTP
METAR KMTP 041254Z AUTO 05005KT 21/18 A2998 RMK AO1 SLP151 T02060178





000
SAUS41 KOKX 041255
MTRMTP
METAR KMTP 041254Z AUTO 05005KT 21/18 A2998 RMK AO1 SLP151 T02060178





000
SAUS41 KOKX 041253
MTRNYC
METAR KNYC 041251Z AUTO 06005KT 10SM OVC110 22/16 A2997 RMK AO2
SLP139 T02170156 $





000
SAUS41 KOKX 041253
MTRNYC
METAR KNYC 041251Z AUTO 06005KT 10SM OVC110 22/16 A2997 RMK AO2
SLP139 T02170156 $





000
SAUS41 KOKX 041156
MTRMTP
METAR KMTP 041154Z AUTO VRB05KT 20/17 A2999 RMK AO1 SLP154 T02000167
10200 20178 56005





000
SAUS41 KOKX 041152
MTRNYC
METAR KNYC 041151Z AUTO VRB03KT 10SM SCT120 22/14 A2997 RMK AO2
SLP139 T02170139 10217 20211 56004 $





000
SAUS41 KOKX 041055
MTRMTP
METAR KMTP 041054Z AUTO 07003KT 19/17 A2999 RMK AO1 SLP156 T01940167





000
SAUS41 KOKX 041055
MTRMTP
METAR KMTP 041054Z AUTO 07003KT 19/17 A2999 RMK AO1 SLP156 T01940167





000
SAUS41 KOKX 041052
MTRNYC
METAR KNYC 041051Z AUTO 00000KT 10SM FEW080 OVC110 22/14 A2998 RMK
AO2 SLP140 T02170144 $





000
SAUS41 KOKX 040955
MTRMTP
METAR KMTP 040954Z AUTO 00000KT 18/17 A2999 RMK AO1 SLP156 T01830167





000
SAUS41 KOKX 040953
MTRNYC
METAR KNYC 040951Z AUTO 12003KT 10SM FEW110 21/14 A2997 RMK AO2
SLP138 T02110139 $





000
SAUS41 KOKX 040953
MTRNYC
METAR KNYC 040951Z AUTO 12003KT 10SM FEW110 21/14 A2997 RMK AO2
SLP138 T02110139 $





000
SAUS41 KOKX 040855
MTRMTP
METAR KMTP 040854Z AUTO 00000KT 18/17 A3000 RMK AO1 SLP159 T01830167
55004





000
SAUS41 KOKX 040855
MTRMTP
METAR KMTP 040854Z AUTO 00000KT 18/17 A3000 RMK AO1 SLP159 T01830167
55004





000
SAUS41 KOKX 040852
MTRNYC
METAR KNYC 040851Z AUTO 00000KT 10SM BKN120 21/16 A2998 RMK AO2
SLP143 T02110156 56007 $





000
SAUS41 KOKX 040852
MTRNYC
METAR KNYC 040851Z AUTO 00000KT 10SM BKN120 21/16 A2998 RMK AO2
SLP143 T02110156 56007 $





000
SAUS41 KOKX 040755
MTRMTP
METAR KMTP 040754Z AUTO 00000KT 18/16 A3000 RMK AO1 SLP159 T01780161





000
SAUS41 KOKX 040752
MTRNYC
METAR KNYC 040751Z AUTO 15003KT 10SM FEW075 SCT100 SCT120 22/14
A2999 RMK AO2 SLP145 T02170144 $





000
SAUS41 KOKX 040655
MTRMTP
METAR KMTP 040654Z AUTO 00000KT 18/16 A3001 RMK AO1 SLP162 T01780161





000
SAUS41 KOKX 040652
MTRNYC
METAR KNYC 040651Z AUTO VRB03KT 10SM SCT110 22/14 A2999 RMK AO2
SLP146 T02170144 $





000
SAUS41 KOKX 040555
MTRMTP
METAR KMTP 040554Z AUTO 00000KT 19/18 A3001 RMK AO1 SLP163 T01940178
10206 20194 57002





000
SAUS41 KOKX 040553
MTRNYC
METAR KNYC 040551Z AUTO VRB04KT 10SM CLR 22/16 A3001 RMK AO2 SLP151
T02170156 10244 20217 56001 $





000
SAUS41 KOKX 040455
MTRMTP
METAR KMTP 040454Z AUTO VRB04KT 20/17 A3002 RMK AO1 SLP165 T02000172
402560178





000
SAUS41 KOKX 040453
MTRNYC
METAR KNYC 040451Z AUTO 00000KT 10SM CLR 22/14 A3001 RMK AO2 SLP152
T02170144 402780189 $





000
SAUS41 KOKX 040355
MTRMTP
METAR KMTP 040354Z AUTO 17004KT 20/17 A3002 RMK AO1 SLP164 T02000172





000
SAUS41 KOKX 040352
MTRNYC
METAR KNYC 040351Z AUTO VRB04KT 10SM CLR 22/14 A3000 RMK AO2 SLP150
T02170144 $





000
SAUS41 KOKX 040255
MTRMTP
METAR KMTP 040254Z AUTO VRB04KT 20/17 A3002 RMK AO1 SLP166 T02000172
53009





000
SAUS41 KOKX 040252
MTRNYC
METAR KNYC 040251Z AUTO 00000KT 10SM CLR 22/15 A3001 RMK AO2 SLP153
T02220150 53008 $





000
SAUS41 KOKX 040252
MTRNYC
METAR KNYC 040251Z AUTO 00000KT 10SM CLR 22/15 A3001 RMK AO2 SLP153
T02220150 53008 $





000
SAUS41 KOKX 040155
MTRMTP
METAR KMTP 040154Z AUTO 17004KT 20/17 A3001 RMK AO1 SLP163 T02000167





000
SAUS41 KOKX 040155
MTRMTP
METAR KMTP 040154Z AUTO 17004KT 20/17 A3001 RMK AO1 SLP163 T02000167





000
SAUS41 KOKX 040152
MTRNYC
METAR KNYC 040151Z AUTO VRB03KT 10SM CLR 23/14 A3000 RMK AO2 SLP151
T02280144 $





000
SAUS41 KOKX 040055
MTRMTP
METAR KMTP 040054Z AUTO VRB03KT 20/17 A3000 RMK AO1 SLP159 T02000167





000
SAUS41 KOKX 040052
MTRNYC
METAR KNYC 040051Z AUTO 00000KT 10SM CLR 23/14 A2999 RMK AO2 SLP145
T02330139 $





000
SAUS41 KOKX 032355
MTRMTP
METAR KMTP 032354Z AUTO 17003KT 21/16 A3000 RMK AO1 SLP157 T02060156
10256 20206 56001





000
SAUS41 KOKX 032353
MTRNYC
METAR KNYC 032351Z AUTO 10SM CLR 24/14 A2998 RMK AO2 SLP144
T02390139 10278 20239 53001 $





000
SAUS41 KOKX 032255
MTRMTP
METAR KMTP 032254Z AUTO 18003KT 22/15 A3000 RMK AO1 SLP158 T02170150





000
SAUS41 KOKX 032255
MTRMTP
METAR KMTP 032254Z AUTO 18003KT 22/15 A3000 RMK AO1 SLP158 T02170150





000
SAUS41 KOKX 032252
MTRNYC
METAR KNYC 032251Z AUTO 00000KT 10SM CLR 26/13 A2998 RMK AO2 SLP142
T02560133 $





000
SAUS41 KOKX 032155
MTRMTP
METAR KMTP 032154Z AUTO VRB04KT 22/15 A2999 RMK AO1 SLP156 T02220150





000
SAUS41 KOKX 032152
MTRNYC
METAR KNYC 032151Z AUTO VRB04KT 10SM FEW065 26/13 A2998 RMK AO2
SLP143 T02610128 $





000
SAUS41 KOKX 032055
MTRMTP
METAR KMTP 032054Z AUTO VRB04KT 23/14 A3000 RMK AO1 SLP157 T02330139
53001





000
SAUS41 KOKX 032055
MTRMTP
METAR KMTP 032054Z AUTO VRB04KT 23/14 A3000 RMK AO1 SLP157 T02330139
53001





000
SAUS41 KOKX 032053
MTRNYC
METAR KNYC 032051Z AUTO 00000KT 10SM CLR 26/12 A2998 RMK AO2 SLP143
T02610117 56007 $





000
SAUS41 KOKX 031955
MTRMTP
METAR KMTP 031954Z AUTO 17005KT 24/12 A3000 RMK AO1 SLP157 T02390117





000
SAUS41 KOKX 031955
MTRMTP
METAR KMTP 031954Z AUTO 17005KT 24/12 A3000 RMK AO1 SLP157 T02390117





000
SAUS41 KOKX 031952
MTRNYC
METAR KNYC 031951Z AUTO 00000KT 10SM CLR 27/12 A2999 RMK AO2 SLP144
T02670117 $





000
SAUS41 KOKX 031855
MTRMTP
METAR KMTP 031854Z AUTO 16003KT 25/12 A2999 RMK AO1 SLP156 T02500117





000
SAUS41 KOKX 031855
MTRMTP
METAR KMTP 031854Z AUTO 16003KT 25/12 A2999 RMK AO1 SLP156 T02500117





000
SAUS41 KOKX 031852
MTRNYC
METAR KNYC 031851Z AUTO 00000KT 10SM CLR 27/11 A3000 RMK AO2 SLP147
T02670106 $





    US Dept of Commerce
    National Oceanic and Atmospheric Administration
    National Weather Service
    1325 East West Highway
    Silver Spring, MD 20910
    Page Author: NWS Internet Services Team
Disclaimer
Information Quality
Credits
Glossary
Privacy Policy
Freedom of Information Act (FOIA)
About Us
Career Opportunities